sensor_id;sensor_type;location;lat;lon;timestamp;pressure;altitude;pressure_sealevel;temperature;humidity
42671;BME280;28283;55.426;37.756;2022-12-24T00:02:18;98478.94;;;1.44;98.71
42671;BME280;28283;55.426;37.756;2022-12-24T00:07:19;98483.59;;;1.66;97.80
42671;BME280;28283;55.426;37.756;2022-12-24T00:12:19;98488.06;;;1.49;97.39
42671;BME280;28283;55.426;37.756;2022-12-24T00:17:20;98486.19;;;1.42;97.78
42671;BME280;28283;55.426;37.756;2022-12-24T00:22:21;98467.50;;;1.27;97.86
42671;BME280;28283;55.426;37.756;2022-12-24T00:27:21;98491.34;;;1.43;97.78
42671;BME280;28283;55.426;37.756;2022-12-24T00:32:22;98466.50;;;1.28;98.03
42671;BME280;28283;55.426;37.756;2022-12-24T00:37:23;98474.28;;;1.38;97.82
42671;BME280;28283;55.426;37.756;2022-12-24T00:42:23;98476.63;;;1.41;97.68
42671;BME280;28283;55.426;37.756;2022-12-24T00:47:24;98469.50;;;1.33;97.81
42671;BME280;28283;55.426;37.756;2022-12-24T00:52:25;98471.47;;;1.31;98.10
42671;BME280;28283;55.426;37.756;2022-12-24T00:57:25;98489.88;;;1.41;98.07
42671;BME280;28283;55.426;37.756;2022-12-24T01:02:26;98494.34;;;1.40;98.30
42671;BME280;28283;55.426;37.756;2022-12-24T01:07:27;98492.66;;;1.39;98.36
42671;BME280;28283;55.426;37.756;2022-12-24T01:12:27;98493.16;;;1.34;98.62
42671;BME280;28283;55.426;37.756;2022-12-24T01:17:31;98505.09;;;1.39;98.21
42671;BME280;28283;55.426;37.756;2022-12-24T01:22:32;98503.56;;;1.36;98.13
42671;BME280;28283;55.426;37.756;2022-12-24T01:27:32;98500.97;;;1.44;97.71
42671;BME280;28283;55.426;37.756;2022-12-24T01:32:33;98497.47;;;1.36;97.86
42671;BME280;28283;55.426;37.756;2022-12-24T01:37:34;98503.25;;;1.39;97.90
42671;BME280;28283;55.426;37.756;2022-12-24T01:42:37;98486.53;;;1.30;97.75
42671;BME280;28283;55.426;37.756;2022-12-24T01:47:56;98494.97;;;1.34;97.83
42671;BME280;28283;55.426;37.756;2022-12-24T01:52:57;98474.47;;;1.28;97.61
42671;BME280;28283;55.426;37.756;2022-12-24T01:57:59;98486.22;;;1.33;97.64
42671;BME280;28283;55.426;37.756;2022-12-24T02:02:59;98488.84;;;1.33;97.43
42671;BME280;28283;55.426;37.756;2022-12-24T02:08:02;98458.88;;;1.17;98.00
42671;BME280;28283;55.426;37.756;2022-12-24T02:13:04;98484.19;;;1.27;97.72
42671;BME280;28283;55.426;37.756;2022-12-24T02:18:32;98497.13;;;1.30;98.06
42671;BME280;28283;55.426;37.756;2022-12-24T02:23:54;98501.09;;;1.26;98.16
42671;BME280;28283;55.426;37.756;2022-12-24T02:39:28;98505.22;;;1.29;97.37
42671;BME280;28283;55.426;37.756;2022-12-24T02:44:40;98481.16;;;1.06;97.57
42671;BME280;28283;55.426;37.756;2022-12-24T02:49:44;98505.53;;;1.18;97.89
42671;BME280;28283;55.426;37.756;2022-12-24T02:54:45;98497.91;;;1.14;97.97
42671;BME280;28283;55.426;37.756;2022-12-24T02:59:58;98509.84;;;1.27;98.09
42671;BME280;28283;55.426;37.756;2022-12-24T03:05:29;98500.59;;;1.23;98.29
42671;BME280;28283;55.426;37.756;2022-12-24T03:10:51;98503.88;;;1.17;97.97
42671;BME280;28283;55.426;37.756;2022-12-24T03:15:54;98506.34;;;1.18;97.71
42671;BME280;28283;55.426;37.756;2022-12-24T03:21:01;98489.81;;;1.16;98.32
42671;BME280;28283;55.426;37.756;2022-12-24T03:26:07;98497.94;;;1.23;98.20
42671;BME280;28283;55.426;37.756;2022-12-24T03:31:09;98489.34;;;1.21;98.37
42671;BME280;28283;55.426;37.756;2022-12-24T03:36:10;98493.66;;;1.30;97.96
42671;BME280;28283;55.426;37.756;2022-12-24T03:41:10;98475.06;;;1.05;98.07
42671;BME280;28283;55.426;37.756;2022-12-24T03:46:11;98484.16;;;1.11;97.89
42671;BME280;28283;55.426;37.756;2022-12-24T03:51:20;98493.13;;;1.10;98.42
42671;BME280;28283;55.426;37.756;2022-12-24T03:56:22;98495.91;;;1.08;98.59
42671;BME280;28283;55.426;37.756;2022-12-24T04:01:22;98475.72;;;1.07;98.67
42671;BME280;28283;55.426;37.756;2022-12-24T04:06:23;98485.66;;;1.05;98.48
42671;BME280;28283;55.426;37.756;2022-12-24T04:11:24;98467.28;;;1.04;98.55
42671;BME280;28283;55.426;37.756;2022-12-24T04:16:24;98455.56;;;1.06;98.34
42671;BME280;28283;55.426;37.756;2022-12-24T04:21:25;98468.78;;;1.14;98.27
42671;BME280;28283;55.426;37.756;2022-12-24T04:26:26;98468.44;;;1.09;98.43
42671;BME280;28283;55.426;37.756;2022-12-24T04:31:27;98467.81;;;1.24;98.32
42671;BME280;28283;55.426;37.756;2022-12-24T04:36:28;98468.16;;;1.21;98.43
42671;BME280;28283;55.426;37.756;2022-12-24T04:41:29;98465.31;;;1.14;98.97
42671;BME280;28283;55.426;37.756;2022-12-24T04:46:30;98452.41;;;1.11;98.77
42671;BME280;28283;55.426;37.756;2022-12-24T04:51:30;98484.34;;;1.18;98.88
42671;BME280;28283;55.426;37.756;2022-12-24T04:56:31;98476.25;;;1.19;98.77
42671;BME280;28283;55.426;37.756;2022-12-24T05:01:32;98467.97;;;1.14;99.09
42671;BME280;28283;55.426;37.756;2022-12-24T05:06:33;98455.91;;;1.20;99.05
42671;BME280;28283;55.426;37.756;2022-12-24T05:11:34;98460.06;;;1.22;99.09
42671;BME280;28283;55.426;37.756;2022-12-24T05:16:34;98458.72;;;1.18;98.98
42671;BME280;28283;55.426;37.756;2022-12-24T05:21:35;98459.38;;;1.20;98.85
42671;BME280;28283;55.426;37.756;2022-12-24T05:26:45;98453.09;;;1.21;99.16
42671;BME280;28283;55.426;37.756;2022-12-24T05:31:49;98419.31;;;1.07;99.45
42671;BME280;28283;55.426;37.756;2022-12-24T05:36:49;98444.00;;;1.16;99.45
42671;BME280;28283;55.426;37.756;2022-12-24T05:41:50;98445.31;;;1.20;98.78
42671;BME280;28283;55.426;37.756;2022-12-24T05:46:51;98450.59;;;1.20;98.96
42671;BME280;28283;55.426;37.756;2022-12-24T05:51:51;98448.97;;;1.19;99.69
42671;BME280;28283;55.426;37.756;2022-12-24T05:56:52;98445.97;;;1.13;99.46
42671;BME280;28283;55.426;37.756;2022-12-24T06:01:53;98443.84;;;1.17;99.30
42671;BME280;28283;55.426;37.756;2022-12-24T06:06:53;98421.00;;;1.08;99.17
42671;BME280;28283;55.426;37.756;2022-12-24T06:11:54;98404.41;;;0.89;99.30
42671;BME280;28283;55.426;37.756;2022-12-24T06:16:54;98441.03;;;1.19;99.18
42671;BME280;28283;55.426;37.756;2022-12-24T06:21:55;98444.50;;;1.19;99.11
42671;BME280;28283;55.426;37.756;2022-12-24T06:26:56;98434.03;;;1.09;99.47
42671;BME280;28283;55.426;37.756;2022-12-24T06:31:56;98428.09;;;1.07;99.27
42671;BME280;28283;55.426;37.756;2022-12-24T06:36:57;98437.38;;;1.11;99.40
42671;BME280;28283;55.426;37.756;2022-12-24T06:41:58;98448.97;;;1.19;99.18
42671;BME280;28283;55.426;37.756;2022-12-24T06:46:58;98423.28;;;1.03;99.87
42671;BME280;28283;55.426;37.756;2022-12-24T06:51:59;98406.41;;;0.95;99.32
42671;BME280;28283;55.426;37.756;2022-12-24T06:56:59;98447.63;;;1.23;99.31
42671;BME280;28283;55.426;37.756;2022-12-24T07:02:00;98414.84;;;1.07;99.10
42671;BME280;28283;55.426;37.756;2022-12-24T07:07:01;98426.16;;;1.26;98.85
42671;BME280;28283;55.426;37.756;2022-12-24T07:12:01;98414.84;;;1.07;99.25
42671;BME280;28283;55.426;37.756;2022-12-24T07:17:02;98430.44;;;1.27;98.60
42671;BME280;28283;55.426;37.756;2022-12-24T07:22:03;98402.78;;;1.13;98.89
42671;BME280;28283;55.426;37.756;2022-12-24T07:27:03;98424.13;;;1.20;99.35
42671;BME280;28283;55.426;37.756;2022-12-24T07:32:04;98391.38;;;1.04;99.18
42671;BME280;28283;55.426;37.756;2022-12-24T07:37:23;98415.72;;;1.24;98.73
42671;BME280;28283;55.426;37.756;2022-12-24T07:42:24;98434.22;;;1.32;98.94
42671;BME280;28283;55.426;37.756;2022-12-24T07:47:25;98444.66;;;1.34;98.73
42671;BME280;28283;55.426;37.756;2022-12-24T07:52:25;98422.31;;;1.20;99.11
42671;BME280;28283;55.426;37.756;2022-12-24T07:57:26;98408.25;;;1.20;99.00
42671;BME280;28283;55.426;37.756;2022-12-24T08:02:27;98417.69;;;1.30;99.22
42671;BME280;28283;55.426;37.756;2022-12-24T08:07:27;98444.03;;;1.40;98.94
42671;BME280;28283;55.426;37.756;2022-12-24T08:12:28;98438.03;;;1.38;98.77
42671;BME280;28283;55.426;37.756;2022-12-24T08:17:29;98444.34;;;1.45;98.68
42671;BME280;28283;55.426;37.756;2022-12-24T08:22:35;98448.97;;;1.43;98.54
42671;BME280;28283;55.426;37.756;2022-12-24T08:27:36;98445.84;;;1.48;98.93
42671;BME280;28283;55.426;37.756;2022-12-24T08:32:37;98425.63;;;1.30;98.52
42671;BME280;28283;55.426;37.756;2022-12-24T08:37:38;98422.00;;;1.31;98.14
42671;BME280;28283;55.426;37.756;2022-12-24T08:42:38;98428.78;;;1.34;98.04
42671;BME280;28283;55.426;37.756;2022-12-24T08:47:39;98431.94;;;1.38;98.74
42671;BME280;28283;55.426;37.756;2022-12-24T08:52:40;98433.75;;;1.37;98.30
42671;BME280;28283;55.426;37.756;2022-12-24T08:57:40;98433.91;;;1.36;98.29
42671;BME280;28283;55.426;37.756;2022-12-24T09:02:41;98395.66;;;1.22;97.91
42671;BME280;28283;55.426;37.756;2022-12-24T09:07:42;98417.38;;;1.33;98.29
42671;BME280;28283;55.426;37.756;2022-12-24T09:12:43;98387.25;;;1.26;98.55
42671;BME280;28283;55.426;37.756;2022-12-24T09:17:43;98359.28;;;1.07;98.34
42671;BME280;28283;55.426;37.756;2022-12-24T09:22:44;98406.25;;;1.38;98.06
42671;BME280;28283;55.426;37.756;2022-12-24T09:27:44;98387.91;;;1.28;98.44
42671;BME280;28283;55.426;37.756;2022-12-24T09:32:45;98376.16;;;1.23;98.50
42671;BME280;28283;55.426;37.756;2022-12-24T09:37:46;98402.63;;;1.39;98.59
42671;BME280;28283;55.426;37.756;2022-12-24T09:42:52;98405.94;;;1.41;98.21
42671;BME280;28283;55.426;37.756;2022-12-24T09:48:14;98399.16;;;1.47;98.42
42671;BME280;28283;55.426;37.756;2022-12-24T09:53:24;98361.91;;;1.24;98.38
42671;BME280;28283;55.426;37.756;2022-12-24T09:58:33;98390.38;;;1.46;98.63
42671;BME280;28283;55.426;37.756;2022-12-24T10:03:35;98360.09;;;1.32;98.50
42671;BME280;28283;55.426;37.756;2022-12-24T10:09:15;98374.66;;;1.45;98.39
42671;BME280;28283;55.426;37.756;2022-12-24T10:30:11;98386.06;;;1.45;98.66
42671;BME280;28283;55.426;37.756;2022-12-24T10:45:38;98384.44;;;1.44;98.64
42671;BME280;28283;55.426;37.756;2022-12-24T10:51:03;98392.03;;;1.39;99.17
42671;BME280;28283;55.426;37.756;2022-12-24T10:56:07;98380.47;;;1.40;98.96
42671;BME280;28283;55.426;37.756;2022-12-24T11:01:08;98399.00;;;1.40;98.97
42671;BME280;28283;55.426;37.756;2022-12-24T11:06:14;98407.94;;;1.47;99.09
42671;BME280;28283;55.426;37.756;2022-12-24T11:11:19;98403.13;;;1.43;98.57
42671;BME280;28283;55.426;37.756;2022-12-24T11:21:32;98405.47;;;1.46;98.71
42671;BME280;28283;55.426;37.756;2022-12-24T11:26:34;98415.88;;;1.39;98.80
42671;BME280;28283;55.426;37.756;2022-12-24T11:31:34;98402.63;;;1.39;98.93
42671;BME280;28283;55.426;37.756;2022-12-24T11:36:36;98398.69;;;1.35;98.46
42671;BME280;28283;55.426;37.756;2022-12-24T11:41:38;98405.94;;;1.41;98.59
42671;BME280;28283;55.426;37.756;2022-12-24T11:46:41;98413.72;;;1.43;98.93
42671;BME280;28283;55.426;37.756;2022-12-24T11:57:12;98433.59;;;1.39;98.48
42671;BME280;28283;55.426;37.756;2022-12-24T12:02:27;98430.94;;;1.30;98.83
42671;BME280;28283;55.426;37.756;2022-12-24T12:07:31;98439.69;;;1.23;99.21
42671;BME280;28283;55.426;37.756;2022-12-24T12:12:37;98407.41;;;1.03;98.75
42671;BME280;28283;55.426;37.756;2022-12-24T12:28:06;98478.59;;;1.30;98.89
42671;BME280;28283;55.426;37.756;2022-12-24T12:33:47;98461.19;;;1.20;98.75
42671;BME280;28283;55.426;37.756;2022-12-24T12:38:52;98480.06;;;1.25;98.20
42671;BME280;28283;55.426;37.756;2022-12-24T12:44:23;98461.81;;;1.05;98.88
42671;BME280;28283;55.426;37.756;2022-12-24T12:50:06;98471.78;;;1.11;99.10
42671;BME280;28283;55.426;37.756;2022-12-24T13:00:22;98476.69;;;0.98;99.34
42671;BME280;28283;55.426;37.756;2022-12-24T13:21:23;98535.97;;;1.13;99.31
42671;BME280;28283;55.426;37.756;2022-12-24T13:26:25;98501.16;;;0.92;99.67
42671;BME280;28283;55.426;37.756;2022-12-24T13:31:29;98546.22;;;1.08;99.00
42671;BME280;28283;55.426;37.756;2022-12-24T13:37:00;98538.88;;;1.02;99.16
42671;BME280;28283;55.426;37.756;2022-12-24T13:42:02;98556.59;;;1.02;99.31
42671;BME280;28283;55.426;37.756;2022-12-24T13:57:40;98544.41;;;0.74;99.63
42671;BME280;28283;55.426;37.756;2022-12-24T14:07:55;98579.06;;;0.98;99.75
42671;BME280;28283;55.426;37.756;2022-12-24T14:12:56;98582.97;;;0.85;99.72
42671;BME280;28283;55.426;37.756;2022-12-24T14:17:57;98572.03;;;0.80;99.75
42671;BME280;28283;55.426;37.756;2022-12-24T14:22:58;98571.53;;;0.76;99.33
42671;BME280;28283;55.426;37.756;2022-12-24T14:28:05;98604.88;;;0.95;99.45
42671;BME280;28283;55.426;37.756;2022-12-24T14:33:30;98606.16;;;0.91;99.45
42671;BME280;28283;55.426;37.756;2022-12-24T14:38:32;98603.19;;;0.94;98.84
42671;BME280;28283;55.426;37.756;2022-12-24T14:59:19;98627.59;;;1.14;96.46
42671;BME280;28283;55.426;37.756;2022-12-24T15:04:20;98640.53;;;1.18;96.17
42671;BME280;28283;55.426;37.756;2022-12-24T15:09:28;98625.22;;;1.38;96.08
42671;BME280;28283;55.426;37.756;2022-12-24T15:14:38;98592.22;;;1.16;95.16
42671;BME280;28283;55.426;37.756;2022-12-24T15:19:42;98628.56;;;1.05;96.09
42671;BME280;28283;55.426;37.756;2022-12-24T15:24:46;98658.25;;;1.17;96.04
42671;BME280;28283;55.426;37.756;2022-12-24T15:29:50;98630.16;;;0.90;96.61
42671;BME280;28283;55.426;37.756;2022-12-24T15:34:53;98604.28;;;0.75;96.56
42671;BME280;28283;55.426;37.756;2022-12-24T15:45:17;98694.19;;;1.28;96.12
42671;BME280;28283;55.426;37.756;2022-12-24T15:50:29;98693.72;;;1.32;96.63
42671;BME280;28283;55.426;37.756;2022-12-24T15:55:38;98691.28;;;1.13;96.26
42671;BME280;28283;55.426;37.756;2022-12-24T16:00:40;98658.94;;;0.93;96.63
42671;BME280;28283;55.426;37.756;2022-12-24T16:05:41;98715.28;;;1.11;97.33
42671;BME280;28283;55.426;37.756;2022-12-24T16:10:46;98716.28;;;1.10;96.93
42671;BME280;28283;55.426;37.756;2022-12-24T16:16:11;98695.72;;;1.04;97.11
42671;BME280;28283;55.426;37.756;2022-12-24T16:26:27;98702.03;;;0.85;97.50
42671;BME280;28283;55.426;37.756;2022-12-24T16:31:49;98734.88;;;1.19;97.38
42671;BME280;28283;55.426;37.756;2022-12-24T16:36:50;98716.22;;;1.02;97.81
42671;BME280;28283;55.426;37.756;2022-12-24T16:41:52;98747.75;;;1.22;97.88
42671;BME280;28283;55.426;37.756;2022-12-24T16:47:26;98732.94;;;1.03;97.01
42671;BME280;28283;55.426;37.756;2022-12-24T16:52:29;98758.63;;;1.10;98.17
42671;BME280;28283;55.426;37.756;2022-12-24T16:57:32;98759.22;;;1.22;97.17
42671;BME280;28283;55.426;37.756;2022-12-24T17:02:33;98784.47;;;1.17;97.54
42671;BME280;28283;55.426;37.756;2022-12-24T17:07:34;98733.13;;;0.83;97.32
42671;BME280;28283;55.426;37.756;2022-12-24T17:12:35;98780.94;;;1.08;97.84
42671;BME280;28283;55.426;37.756;2022-12-24T17:17:36;98761.53;;;0.99;97.42
42671;BME280;28283;55.426;37.756;2022-12-24T17:22:37;98721.69;;;1.01;96.79
42671;BME280;28283;55.426;37.756;2022-12-24T17:27:38;98792.19;;;1.36;96.36
42671;BME280;28283;55.426;37.756;2022-12-24T17:32:38;98795.56;;;1.20;96.59
42671;BME280;28283;55.426;37.756;2022-12-24T17:37:39;98783.78;;;1.14;96.77
42671;BME280;28283;55.426;37.756;2022-12-24T17:42:40;98816.44;;;1.23;96.85
42671;BME280;28283;55.426;37.756;2022-12-24T17:47:40;98826.13;;;1.14;96.90
42671;BME280;28283;55.426;37.756;2022-12-24T17:52:41;98826.59;;;1.28;96.75
42671;BME280;28283;55.426;37.756;2022-12-24T17:57:42;98835.81;;;1.24;96.39
42671;BME280;28283;55.426;37.756;2022-12-24T18:02:42;98733.97;;;0.48;97.46
42671;BME280;28283;55.426;37.756;2022-12-24T18:07:43;98855.63;;;1.20;97.70
42671;BME280;28283;55.426;37.756;2022-12-24T18:12:44;98863.28;;;1.23;97.72
42671;BME280;28283;55.426;37.756;2022-12-24T18:17:52;98837.34;;;1.08;97.03
42671;BME280;28283;55.426;37.756;2022-12-24T18:22:53;98856.19;;;1.05;97.44
42671;BME280;28283;55.426;37.756;2022-12-24T18:27:54;98857.91;;;0.97;97.30
42671;BME280;28283;55.426;37.756;2022-12-24T18:32:54;98874.19;;;1.02;97.79
42671;BME280;28283;55.426;37.756;2022-12-24T18:37:55;98867.81;;;0.94;96.77
42671;BME280;28283;55.426;37.756;2022-12-24T18:42:56;98886.81;;;1.08;96.91
42671;BME280;28283;55.426;37.756;2022-12-24T18:47:58;98882.94;;;1.02;96.29
42671;BME280;28283;55.426;37.756;2022-12-24T18:52:58;98925.28;;;1.20;96.06
42671;BME280;28283;55.426;37.756;2022-12-24T18:57:59;98870.84;;;1.00;95.29
42671;BME280;28283;55.426;37.756;2022-12-24T19:03:00;98905.13;;;1.01;94.95
42671;BME280;28283;55.426;37.756;2022-12-24T19:08:03;98940.66;;;1.17;95.48
42671;BME280;28283;55.426;37.756;2022-12-24T19:13:04;98950.72;;;1.31;95.58
42671;BME280;28283;55.426;37.756;2022-12-24T19:18:05;98915.22;;;0.88;95.23
42671;BME280;28283;55.426;37.756;2022-12-24T19:23:06;98953.13;;;1.06;95.87
42671;BME280;28283;55.426;37.756;2022-12-24T19:28:07;98980.81;;;1.12;94.98
42671;BME280;28283;55.426;37.756;2022-12-24T19:33:09;98981.50;;;1.14;95.15
42671;BME280;28283;55.426;37.756;2022-12-24T19:38:10;98944.25;;;0.80;95.35
42671;BME280;28283;55.426;37.756;2022-12-24T19:43:10;98937.56;;;0.57;95.02
42671;BME280;28283;55.426;37.756;2022-12-24T19:48:13;98978.00;;;0.95;94.60
42671;BME280;28283;55.426;37.756;2022-12-24T19:53:14;98983.06;;;0.89;94.72
42671;BME280;28283;55.426;37.756;2022-12-24T19:58:14;99017.41;;;1.17;93.34
42671;BME280;28283;55.426;37.756;2022-12-24T20:03:15;98990.56;;;0.93;93.05
42671;BME280;28283;55.426;37.756;2022-12-24T20:08:16;98990.19;;;0.79;92.79
42671;BME280;28283;55.426;37.756;2022-12-24T20:13:17;99030.44;;;1.10;92.40
42671;BME280;28283;55.426;37.756;2022-12-24T20:18:17;99037.84;;;1.06;91.85
42671;BME280;28283;55.426;37.756;2022-12-24T20:23:18;98980.84;;;0.56;91.92
42671;BME280;28283;55.426;37.756;2022-12-24T20:28:19;99003.56;;;0.77;92.13
42671;BME280;28283;55.426;37.756;2022-12-24T20:33:20;99021.66;;;0.82;91.76
42671;BME280;28283;55.426;37.756;2022-12-24T20:38:21;99044.09;;;0.78;92.04
42671;BME280;28283;55.426;37.756;2022-12-24T20:43:21;99054.03;;;0.66;93.02
42671;BME280;28283;55.426;37.756;2022-12-24T20:48:23;99067.25;;;0.66;92.16
42671;BME280;28283;55.426;37.756;2022-12-24T20:53:24;99083.41;;;0.63;92.51
42671;BME280;28283;55.426;37.756;2022-12-24T20:58:25;99068.31;;;0.45;92.26
42671;BME280;28283;55.426;37.756;2022-12-24T21:03:25;99102.59;;;0.74;92.20
42671;BME280;28283;55.426;37.756;2022-12-24T21:08:26;99084.81;;;0.57;92.04
42671;BME280;28283;55.426;37.756;2022-12-24T21:13:27;99074.00;;;0.41;92.04
42671;BME280;28283;55.426;37.756;2022-12-24T21:18:27;99063.91;;;0.07;91.93
42671;BME280;28283;55.426;37.756;2022-12-24T21:23:28;99059.06;;;0.02;92.05
42671;BME280;28283;55.426;37.756;2022-12-24T21:28:30;99132.44;;;0.37;92.16
42671;BME280;28283;55.426;37.756;2022-12-24T21:33:30;99107.44;;;0.12;92.03
42671;BME280;28283;55.426;37.756;2022-12-24T21:38:33;99127.75;;;0.02;93.01
42671;BME280;28283;55.426;37.756;2022-12-24T21:43:34;99145.41;;;0.02;93.03
42671;BME280;28283;55.426;37.756;2022-12-24T21:48:36;99115.50;;;-0.28;93.16
42671;BME280;28283;55.426;37.756;2022-12-24T21:53:56;99153.59;;;-0.21;93.53
42671;BME280;28283;55.426;37.756;2022-12-24T21:59:15;99165.81;;;-0.20;93.57
42671;BME280;28283;55.426;37.756;2022-12-24T22:04:15;99178.34;;;-0.22;93.46
42671;BME280;28283;55.426;37.756;2022-12-24T22:09:16;99120.72;;;-0.58;93.72
42671;BME280;28283;55.426;37.756;2022-12-24T22:14:35;99166.59;;;-0.49;94.30
42671;BME280;28283;55.426;37.756;2022-12-24T22:19:36;99187.59;;;-0.47;94.27
42671;BME280;28283;55.426;37.756;2022-12-24T22:24:37;99161.81;;;-0.65;94.16
42671;BME280;28283;55.426;37.756;2022-12-24T22:29:37;99166.25;;;-0.75;94.41
42671;BME280;28283;55.426;37.756;2022-12-24T22:34:38;99184.06;;;-0.67;94.87
42671;BME280;28283;55.426;37.756;2022-12-24T22:39:39;99214.81;;;-0.47;94.32
42671;BME280;28283;55.426;37.756;2022-12-24T22:44:39;99184.72;;;-0.75;94.20
42671;BME280;28283;55.426;37.756;2022-12-24T22:49:40;99231.31;;;-0.64;95.09
42671;BME280;28283;55.426;37.756;2022-12-24T22:54:41;99221.69;;;-0.75;94.97
42671;BME280;28283;55.426;37.756;2022-12-24T22:59:41;99220.13;;;-0.78;95.16
42671;BME280;28283;55.426;37.756;2022-12-24T23:04:42;99240.19;;;-0.65;95.02
42671;BME280;28283;55.426;37.756;2022-12-24T23:09:43;99246.84;;;-0.71;94.77
42671;BME280;28283;55.426;37.756;2022-12-24T23:14:43;99257.06;;;-0.78;95.26
42671;BME280;28283;55.426;37.756;2022-12-24T23:19:56;99261.47;;;-0.88;95.73
42671;BME280;28283;55.426;37.756;2022-12-24T23:24:57;99269.44;;;-0.78;96.03
42671;BME280;28283;55.426;37.756;2022-12-24T23:29:57;99267.63;;;-0.78;95.42
42671;BME280;28283;55.426;37.756;2022-12-24T23:34:58;99290.88;;;-0.71;95.90
42671;BME280;28283;55.426;37.756;2022-12-24T23:39:59;99257.34;;;-0.81;95.56
42671;BME280;28283;55.426;37.756;2022-12-24T23:45:00;99276.41;;;-0.77;96.02
42671;BME280;28283;55.426;37.756;2022-12-24T23:50:00;99289.97;;;-0.61;95.20
42671;BME280;28283;55.426;37.756;2022-12-24T23:55:01;99291.91;;;-0.63;95.55
